createdAt,value
2023-02-11T00:00:10.689Z,21.63
2023-02-11T00:05:13.679Z,21.64
2023-02-11T00:10:16.795Z,21.64
2023-02-11T00:15:21.259Z,21.56
2023-02-11T00:20:24.211Z,21.61
2023-02-11T00:25:27.031Z,21.62
2023-02-11T00:30:31.217Z,21.61
2023-02-11T00:35:34.003Z,21.62
2023-02-11T00:40:36.913Z,21.65
2023-02-11T00:45:41.183Z,21.65
2023-02-11T00:50:44.006Z,21.61
2023-02-11T00:55:46.776Z,21.63
2023-02-11T01:00:51.075Z,21.64
2023-02-11T01:05:54.276Z,21.63
2023-02-11T01:10:58.350Z,21.65
2023-02-11T01:16:02.889Z,21.65
2023-02-11T01:21:06.181Z,21.64
2023-02-11T01:26:09.038Z,21.63
2023-02-11T01:31:13.259Z,21.64
2023-02-11T01:36:16.085Z,21.61
2023-02-11T01:41:18.861Z,21.58
2023-02-11T01:46:30.944Z,21.58
2023-02-11T01:51:38.746Z,21.62
2023-02-11T01:57:04.629Z,21.58
2023-02-11T02:02:13.556Z,21.61
2023-02-11T02:07:26.349Z,21.59
2023-02-11T02:12:29.237Z,21.60
2023-02-11T02:17:45.700Z,21.58
2023-02-11T02:23:14.930Z,21.59
2023-02-11T02:28:43.909Z,21.59
2023-02-11T02:33:56.242Z,21.59
2023-02-11T02:39:04.172Z,21.59
2023-02-11T02:44:09.138Z,21.56
2023-02-11T02:49:15.177Z,21.58
2023-02-11T02:54:35.838Z,21.60
2023-02-11T02:59:52.599Z,21.57
2023-02-11T03:05:04.969Z,21.59
2023-02-11T03:10:14.418Z,21.60
2023-02-11T03:15:20.396Z,21.56
2023-02-11T03:20:24.918Z,21.58
2023-02-11T03:25:33.395Z,21.57
2023-02-11T03:30:41.532Z,21.59
2023-02-11T03:35:51.840Z,21.55
2023-02-11T03:40:57.494Z,21.55
2023-02-11T03:46:03.229Z,21.62
2023-02-11T03:51:10.540Z,21.61
2023-02-11T03:56:18.702Z,21.54
2023-02-11T04:01:21.772Z,21.48
2023-02-11T04:06:25.893Z,21.54
2023-02-11T04:11:28.743Z,21.55
2023-02-11T04:16:31.912Z,21.55
2023-02-11T04:21:36.100Z,21.58
2023-02-11T04:26:38.861Z,21.57
2023-02-11T04:31:41.665Z,21.55
2023-02-11T04:36:45.888Z,21.59
2023-02-11T04:41:48.836Z,21.58
2023-02-11T04:46:51.690Z,21.60
2023-02-11T04:51:56.163Z,21.64
2023-02-11T04:56:58.920Z,21.61
2023-02-11T05:02:01.669Z,21.59
2023-02-11T05:07:05.791Z,21.63
2023-02-11T05:12:08.765Z,21.62
2023-02-11T05:17:11.536Z,21.58
2023-02-11T05:22:15.669Z,21.55
2023-02-11T05:27:18.552Z,21.55
2023-02-11T05:32:21.355Z,21.49
2023-02-11T05:37:25.547Z,21.54
2023-02-11T05:42:28.480Z,21.57
2023-02-11T05:47:31.307Z,21.54
2023-02-11T05:52:35.578Z,21.55
2023-02-11T05:57:38.428Z,21.49
2023-02-11T06:02:41.347Z,21.51
2023-02-11T06:07:45.491Z,21.43
2023-02-11T06:12:48.511Z,21.45
2023-02-11T06:17:52.121Z,21.51
2023-02-11T06:22:56.370Z,21.52
2023-02-11T06:27:59.181Z,21.48
2023-02-11T06:33:01.962Z,21.37
2023-02-11T06:38:06.085Z,21.39
2023-02-11T06:43:08.872Z,21.38
2023-02-11T06:48:11.630Z,21.42
2023-02-11T06:53:15.777Z,21.43
2023-02-11T06:58:18.570Z,21.45
2023-02-11T07:03:21.438Z,21.42
2023-02-11T07:08:25.564Z,21.43
2023-02-11T07:13:28.424Z,21.39
2023-02-11T07:18:31.266Z,21.39
2023-02-11T07:23:36.142Z,21.41
2023-02-11T07:28:40.063Z,21.43
2023-02-11T07:33:43.255Z,21.41
2023-02-11T07:38:47.528Z,21.44
2023-02-11T07:43:50.826Z,21.45
2023-02-11T07:48:54.933Z,21.39
2023-02-11T07:54:00.585Z,21.42
2023-02-11T07:59:05.266Z,21.43
2023-02-11T08:04:08.054Z,21.36
2023-02-11T08:09:16.199Z,21.48
2023-02-11T08:14:20.392Z,21.54
2023-02-11T08:19:23.175Z,21.58
2023-02-11T08:24:27.304Z,21.61
2023-02-11T08:29:30.491Z,21.67
2023-02-11T08:34:33.927Z,21.65
2023-02-11T08:39:38.482Z,21.68
2023-02-11T08:44:41.384Z,20.76
2023-02-11T08:49:44.181Z,21.03
2023-02-11T08:54:48.322Z,21.53
2023-02-11T08:59:51.075Z,21.77
2023-02-11T09:04:53.915Z,21.90
2023-02-11T09:09:58.019Z,22.02
2023-02-11T09:15:00.998Z,22.12
2023-02-11T09:20:04.089Z,22.23
2023-02-11T09:25:08.848Z,22.27
2023-02-11T09:30:12.724Z,22.33
2023-02-11T09:35:15.541Z,22.41
2023-02-11T09:40:21.234Z,22.45
2023-02-11T09:45:26.414Z,22.52
2023-02-11T09:50:33.494Z,22.58
2023-02-11T09:55:42.808Z,22.51
2023-02-11T10:00:49.830Z,22.65
2023-02-11T10:06:10.685Z,22.68
2023-02-11T10:11:31.166Z,22.71
2023-02-11T10:16:51.216Z,22.74
2023-02-11T10:22:03.248Z,22.79
2023-02-11T10:27:17.581Z,22.83
2023-02-11T10:32:30.716Z,22.77
2023-02-11T10:37:33.451Z,22.71
2023-02-11T10:42:37.864Z,22.82
2023-02-11T10:47:42.283Z,22.80
2023-02-11T10:52:45.028Z,22.62
2023-02-11T10:57:56.581Z,22.34
2023-02-11T11:03:02.066Z,22.69
2023-02-11T11:08:08.744Z,22.74
2023-02-11T11:13:31.469Z,22.33
2023-02-11T11:18:34.231Z,22.40
2023-02-11T11:23:38.877Z,22.30
2023-02-11T11:29:00.009Z,22.18
2023-02-11T11:34:07.224Z,22.23
2023-02-11T11:39:24.186Z,22.15
2023-02-11T11:44:33.460Z,22.13
2023-02-11T11:49:40.681Z,22.60
2023-02-11T11:54:47.654Z,22.66
2023-02-11T11:59:51.970Z,22.85
2023-02-11T12:05:03.060Z,22.77
2023-02-11T12:10:29.151Z,22.87
2023-02-11T12:15:37.562Z,22.77
2023-02-11T12:21:00.968Z,22.74
2023-02-11T12:26:14.364Z,22.60
2023-02-11T12:31:33.571Z,22.74
2023-02-11T12:36:54.427Z,22.85
2023-02-11T12:42:37.365Z,22.86
2023-02-11T12:47:54.622Z,22.84
2023-02-11T12:53:11.544Z,22.88
2023-02-11T12:58:19.931Z,22.91
2023-02-11T13:03:31.927Z,22.93
2023-02-11T13:08:39.351Z,22.91
2023-02-11T13:13:53.679Z,22.81
2023-02-11T13:19:05.017Z,22.83
2023-02-11T13:24:20.761Z,22.80
2023-02-11T13:29:32.873Z,22.90
2023-02-11T13:35:01.568Z,22.94
2023-02-11T13:40:07.737Z,22.84
2023-02-11T13:45:19.681Z,22.91
2023-02-11T13:50:26.458Z,23.08
2023-02-11T13:55:30.405Z,23.12
2023-02-11T14:00:49.716Z,23.19
2023-02-11T14:06:33.520Z,23.05
2023-02-11T14:11:51.937Z,23.21
2023-02-11T14:17:21.214Z,22.79
2023-02-11T14:22:29.529Z,22.46
2023-02-11T14:27:38.609Z,22.52
2023-02-11T14:32:54.119Z,22.73
2023-02-11T14:38:07.756Z,22.95
2023-02-11T14:43:16.311Z,23.01
2023-02-11T14:48:21.897Z,23.04
2023-02-11T14:53:29.398Z,22.92
2023-02-11T14:58:34.329Z,22.91
2023-02-11T15:03:38.847Z,22.95
2023-02-11T15:08:48.318Z,22.91
2023-02-11T15:13:55.078Z,22.95
2023-02-11T15:19:05.610Z,22.93
2023-02-11T15:24:25.449Z,23.09
2023-02-11T15:29:29.980Z,23.20
2023-02-11T15:34:32.886Z,23.15
2023-02-11T15:39:41.001Z,23.19
2023-02-11T15:44:44.143Z,23.17
2023-02-11T15:49:48.788Z,23.21
2023-02-11T15:54:54.889Z,23.24
2023-02-11T15:59:59.138Z,23.15
2023-02-11T16:05:05.576Z,23.20
2023-02-11T16:10:20.488Z,23.25
2023-02-11T16:15:32.482Z,23.18
2023-02-11T16:20:35.331Z,23.25
2023-02-11T16:25:43.414Z,23.04
2023-02-11T16:30:46.284Z,23.19
2023-02-11T16:35:49.255Z,23.25
2023-02-11T16:40:53.623Z,23.17
2023-02-11T16:45:56.581Z,23.21
2023-02-11T16:50:59.796Z,23.16
2023-02-11T16:56:04.290Z,23.24
2023-02-11T17:01:08.091Z,23.33
2023-02-11T17:06:11.874Z,23.35
2023-02-11T17:11:16.719Z,23.30
2023-02-11T17:16:22.421Z,23.35
2023-02-11T17:21:28.870Z,23.42
2023-02-11T17:26:35.337Z,23.34
2023-02-11T17:31:39.458Z,23.32
2023-02-11T17:36:42.564Z,23.42
2023-02-11T17:41:46.797Z,23.38
2023-02-11T17:46:49.619Z,23.11
2023-02-11T17:51:52.581Z,23.19
2023-02-11T17:56:58.450Z,23.34
2023-02-11T18:02:01.480Z,23.20
2023-02-11T18:07:04.335Z,23.33
2023-02-11T18:12:10.627Z,23.08
2023-02-11T18:17:13.449Z,23.12
2023-02-11T18:22:16.960Z,23.24
2023-02-11T18:27:21.327Z,23.20
2023-02-11T18:32:24.151Z,22.71
2023-02-11T18:37:27.067Z,22.98
2023-02-11T18:42:32.925Z,22.98
2023-02-11T18:47:37.783Z,22.92
2023-02-11T18:52:40.789Z,22.92
2023-02-11T18:57:44.900Z,23.02
2023-02-11T19:02:47.728Z,22.99
2023-02-11T19:07:50.714Z,22.88
2023-02-11T19:12:56.376Z,23.03
2023-02-11T19:17:59.215Z,22.86
2023-02-11T19:23:02.114Z,22.93
2023-02-11T19:28:06.617Z,22.84
2023-02-11T19:33:10.343Z,22.93
2023-02-11T19:38:13.962Z,23.02
2023-02-11T19:43:18.208Z,22.91
2023-02-11T19:48:21.092Z,22.88
2023-02-11T19:53:24.221Z,22.96
2023-02-11T19:58:28.384Z,22.79
2023-02-11T20:03:31.178Z,22.89
2023-02-11T20:08:34.466Z,22.79
2023-02-11T20:13:39.348Z,22.78
2023-02-11T20:18:42.360Z,22.80
2023-02-11T20:23:46.661Z,22.76
2023-02-11T20:28:52.600Z,22.74
2023-02-11T20:33:56.391Z,22.68
2023-02-11T20:39:00.297Z,22.73
2023-02-11T20:44:06.337Z,22.69
2023-02-11T20:49:11.125Z,22.59
2023-02-11T20:54:17.318Z,22.69
2023-02-11T20:59:21.990Z,22.73
2023-02-11T21:04:27.243Z,22.68
2023-02-11T21:09:32.561Z,22.66
2023-02-11T21:14:36.776Z,22.65
2023-02-11T21:19:39.908Z,22.73
2023-02-11T21:24:42.753Z,22.71
2023-02-11T21:29:54.265Z,22.68
2023-02-11T21:34:57.615Z,22.60
2023-02-11T21:40:00.568Z,22.66
2023-02-11T21:45:05.349Z,22.65
2023-02-11T21:50:09.010Z,22.68
2023-02-11T21:55:12.108Z,22.61
2023-02-11T22:00:18.103Z,22.70
2023-02-11T22:05:21.315Z,22.79
2023-02-11T22:10:24.469Z,22.73
2023-02-11T22:15:28.855Z,22.80
2023-02-11T22:20:31.729Z,22.74
2023-02-11T22:25:34.455Z,22.69
2023-02-11T22:30:38.729Z,22.71
2023-02-11T22:35:41.485Z,22.76
2023-02-11T22:40:44.620Z,22.71
2023-02-11T22:45:48.949Z,22.64
2023-02-11T22:50:51.838Z,22.66
2023-02-11T22:55:54.957Z,22.65
2023-02-11T23:00:59.615Z,22.73
2023-02-11T23:06:02.861Z,22.71
2023-02-11T23:11:07.906Z,22.70
2023-02-11T23:16:14.061Z,22.69
2023-02-11T23:21:19.157Z,22.67
2023-02-11T23:26:21.960Z,22.73
2023-02-11T23:31:29.129Z,22.63
2023-02-11T23:36:33.893Z,22.66
2023-02-11T23:41:36.907Z,22.62
2023-02-11T23:46:41.085Z,22.74
2023-02-11T23:51:44.245Z,22.69
2023-02-11T23:56:47.101Z,22.60
